Time;durP1;ratioP1;P1;durP2;ratioP2;P2;SDS_P1;SDS_P2;PMS_P1;PMS_P2;Temp;Humidity;BMP_temperature;BMP_pressure;BME280_temperature;BME280_humidity;BME280_pressure;Samples;Min_cycle;Max_cycle;Signal;HPM_P1;HPM_P2
2023/04/16 00:00:34;;;;;;;8.07;5.72;;;;;;;10.59;62.73;98793.78;4379441;32;32702;-84
2023/04/16 00:03:02;;;;;;;10.10;6.40;;;;;;;10.32;63.26;98794.47;4394072;32;33689;-84
2023/04/16 00:05:30;;;;;;;8.48;5.70;;;;;;;10.37;63.23;98789.31;4391387;32;34372;-84
2023/04/16 00:07:58;;;;;;;8.70;5.82;;;;;;;10.42;63.14;98790.25;4405885;32;34118;-84
2023/04/16 00:10:26;;;;;;;8.48;5.15;;;;;;;10.57;62.75;98794.63;4402254;32;34899;-85
2023/04/16 00:12:53;;;;;;;8.20;5.62;;;;;;;10.30;63.22;98795.31;4379244;32;34853;-84
2023/04/16 00:15:21;;;;;;;7.40;4.93;;;;;;;10.21;63.52;98790.88;4375552;32;32824;-83
2023/04/16 00:17:48;;;;;;;7.93;5.40;;;;;;;10.24;63.55;98789.19;4403270;32;34029;-84
2023/04/16 00:20:16;;;;;;;6.57;4.93;;;;;;;10.27;63.39;98788.41;4405745;32;34913;-84
2023/04/16 00:22:44;;;;;;;7.60;5.22;;;;;;;10.12;63.47;98789.09;4401468;32;34688;-83
2023/04/16 00:25:12;;;;;;;7.68;5.12;;;;;;;10.16;63.58;98788.28;4385461;32;34293;-83
2023/04/16 00:27:40;;;;;;;8.15;5.20;;;;;;;10.09;63.65;98788.22;4388279;32;33136;-84
2023/04/16 00:30:08;;;;;;;8.23;4.95;;;;;;;10.01;63.89;98790.72;4375801;32;34853;-84
2023/04/16 00:32:36;;;;;;;8.70;5.75;;;;;;;9.97;64.17;98789.84;4401916;32;33981;-84
2023/04/16 00:35:04;;;;;;;7.12;5.00;;;;;;;10.09;63.65;98791.66;4397668;32;33578;-84
2023/04/16 00:37:31;;;;;;;6.37;4.47;;;;;;;10.14;63.29;98792.56;4401948;32;33676;-84
2023/04/16 00:40:00;;;;;;;7.80;4.55;;;;;;;10.12;63.22;98790.84;4403394;32;33462;-84
2023/04/16 00:42:27;;;;;;;6.57;4.45;;;;;;;10.21;62.79;98791.75;4403384;32;33834;-84
2023/04/16 00:44:55;;;;;;;6.07;4.12;;;;;;;10.27;62.33;98800.47;4404621;32;33560;-84
2023/04/16 00:47:22;;;;;;;6.25;3.92;;;;;;;10.08;62.64;98794.25;4404016;32;34095;-83
2023/04/16 00:49:50;;;;;;;6.05;3.92;;;;;;;10.06;62.53;98801.97;4385350;32;34062;-84
2023/04/16 00:52:17;;;;;;;6.95;4.37;;;;;;;9.93;62.29;98790.66;4404678;32;34519;-85
2023/04/16 00:54:46;;;;;;;6.53;4.80;;;;;;;9.75;62.69;98795.66;4399685;32;33234;-83
2023/04/16 00:57:13;;;;;;;6.70;3.83;;;;;;;9.84;62.39;98792.28;4395970;32;35211;-85
2023/04/16 00:59:41;;;;;;;6.95;4.00;;;;;;;9.77;62.71;98798.25;4405622;32;34822;-85
2023/04/16 01:02:08;;;;;;;5.97;4.15;;;;;;;9.71;62.66;98802.53;4408934;32;34173;-84
2023/04/16 01:04:36;;;;;;;6.95;4.15;;;;;;;9.64;62.73;98800.72;4405212;32;33852;-85
2023/04/16 01:07:03;;;;;;;6.10;3.62;;;;;;;9.72;62.69;98793.91;4391730;32;33738;-86
2023/04/16 01:09:31;;;;;;;6.20;3.80;;;;;;;9.67;62.91;98805.94;4405380;32;34025;-84
2023/04/16 01:11:59;;;;;;;5.97;3.53;;;;;;;9.79;62.60;98801.72;4405033;32;33570;-84
2023/04/16 01:14:26;;;;;;;7.03;4.22;;;;;;;9.57;63.20;98803.22;4391797;32;32782;-84
2023/04/16 01:16:54;;;;;;;6.78;4.60;;;;;;;9.46;63.56;98803.09;4405394;32;33971;-84
2023/04/16 01:19:21;;;;;;;7.35;4.65;;;;;;;9.50;63.71;98804.87;4419677;32;34147;-85
2023/04/16 01:21:51;;;;;;;8.10;4.45;;;;;;;9.56;63.91;98802.34;4419277;32;34724;-84
2023/04/16 01:24:18;;;;;;;8.93;5.05;;;;;;;9.40;64.48;98808.22;4418940;32;33531;-84
2023/04/16 01:26:46;;;;;;;8.80;5.00;;;;;;;9.49;64.29;98798.81;4420169;32;34727;-84
2023/04/16 01:29:13;;;;;;;9.90;5.72;;;;;;;9.53;64.51;98804.03;4415905;32;34187;-84
2023/04/16 01:31:41;;;;;;;7.95;5.35;;;;;;;9.42;65.06;98811.69;4402987;32;33788;-84
2023/04/16 01:34:08;;;;;;;8.40;5.40;;;;;;;9.56;64.93;98807.53;4389545;32;35785;-84
2023/04/16 01:36:36;;;;;;;8.50;5.90;;;;;;;9.60;64.86;98806.72;4385112;32;33580;-84
2023/04/16 01:39:04;;;;;;;8.93;6.37;;;;;;;9.49;65.27;98803.16;4402558;32;34839;-84
2023/04/16 01:41:31;;;;;;;10.05;6.32;;;;;;;9.49;65.43;98797.97;4396408;32;34969;-84
2023/04/16 01:43:58;;;;;;;8.55;6.45;;;;;;;9.51;65.72;98796.28;4403083;32;34140;-84
2023/04/16 01:46:30;;;;;;;10.10;7.28;;;;;;;9.55;65.88;98798.03;4404607;32;33829;-85
2023/04/16 01:48:58;;;;;;;9.02;6.47;;;;;;;9.56;65.78;98799.78;4403681;32;34476;-86
2023/04/16 01:51:26;;;;;;;9.98;7.65;;;;;;;9.56;65.74;98802.34;4389479;32;34027;-85
2023/04/16 01:53:54;;;;;;;12.80;9.13;;;;;;;9.51;65.43;98801.44;4402445;32;33814;-85
2023/04/16 01:56:22;;;;;;;13.15;8.25;;;;;;;9.34;66.48;98810.72;4394957;32;34846;-84
2023/04/16 01:58:49;;;;;;;12.35;8.63;;;;;;;9.32;66.34;98815.91;4402028;32;33595;-84
2023/04/16 02:01:17;;;;;;;12.85;8.77;;;;;;;9.21;66.31;98823.53;4403448;32;33764;-85
2023/04/16 02:03:46;;;;;;;12.80;9.85;;;;;;;9.20;65.96;98803.66;4404578;32;33139;-85
2023/04/16 02:06:15;;;;;;;15.88;11.00;;;;;;;8.51;68.08;98814.78;4404556;32;33716;-85
2023/04/16 02:08:42;;;;;;;13.45;10.50;;;;;;;8.64;68.48;98813.25;4397366;32;34989;-85
2023/04/16 02:11:10;;;;;;;14.85;11.05;;;;;;;9.06;66.69;98814.69;4405399;32;34582;-84
2023/04/16 02:13:38;;;;;;;17.05;13.05;;;;;;;8.93;67.19;98821.41;4393737;32;33358;-83
2023/04/16 02:16:06;;;;;;;17.25;12.88;;;;;;;8.81;67.87;98823.81;4396323;32;35106;-86
2023/04/16 02:18:33;;;;;;;18.25;13.70;;;;;;;9.08;66.75;98831.94;4405620;32;34013;-85
2023/04/16 02:21:02;;;;;;;16.67;12.75;;;;;;;9.04;66.51;98824.12;4405599;32;34739;-85
2023/04/16 02:23:29;;;;;;;16.12;13.20;;;;;;;9.27;65.67;98828.75;4388693;32;33673;-85
2023/04/16 02:25:57;;;;;;;16.80;12.45;;;;;;;9.33;65.34;98832.28;4391557;32;33513;-84
2023/04/16 02:28:25;;;;;;;19.12;13.57;;;;;;;9.27;65.48;98826.16;4406609;32;34073;-85
2023/04/16 02:30:52;;;;;;;16.08;13.13;;;;;;;9.36;65.38;98830.59;4390450;32;34068;-85
2023/04/16 02:33:20;;;;;;;18.55;13.02;;;;;;;9.54;64.72;98832.50;4399155;32;34111;-86
2023/04/16 02:35:48;;;;;;;20.20;14.73;;;;;;;9.39;64.37;98828.03;4401680;32;33695;-85
2023/04/16 02:38:16;;;;;;;24.83;15.93;;;;;;;9.27;64.62;98825.28;4403495;32;34148;-85
2023/04/16 02:40:44;;;;;;;21.92;15.57;;;;;;;9.32;64.61;98825.34;4402763;32;35153;-84
2023/04/16 02:43:11;;;;;;;21.98;15.90;;;;;;;8.87;65.82;98827.37;4404119;32;34365;-85
2023/04/16 02:45:39;;;;;;;21.65;16.15;;;;;;;8.99;65.78;98824.09;4408295;32;34660;-85
2023/04/16 02:48:07;;;;;;;22.17;15.80;;;;;;;9.00;65.76;98828.41;4403945;32;34110;-85
2023/04/16 02:50:35;;;;;;;20.85;15.23;;;;;;;9.10;65.60;98832.00;4405357;32;33687;-84
2023/04/16 02:53:03;;;;;;;22.83;15.95;;;;;;;9.06;65.49;98832.81;4386581;32;32807;-84
2023/04/16 02:55:30;;;;;;;21.10;16.08;;;;;;;9.24;65.16;98831.31;4401861;32;33987;-84
2023/04/16 02:57:59;;;;;;;18.83;15.27;;;;;;;9.09;65.74;98830.22;4377334;32;34182;-86
2023/04/16 03:00:27;;;;;;;21.52;15.60;;;;;;;9.38;65.05;98836.66;4391435;32;34147;-84
2023/04/16 03:02:54;;;;;;;22.52;15.45;;;;;;;9.15;65.71;98838.94;4401113;32;34293;-85
2023/04/16 03:05:23;;;;;;;23.38;16.23;;;;;;;9.21;65.62;98839.03;4405118;32;33616;-85
2023/04/16 03:07:55;;;;;;;21.92;16.12;;;;;;;9.01;66.22;98836.16;4404100;32;35421;-84
2023/04/16 03:10:23;;;;;;;20.88;16.52;;;;;;;9.19;65.69;98837.28;4405110;32;33793;-85
2023/04/16 03:12:50;;;;;;;20.92;15.38;;;;;;;9.24;65.43;98833.91;4389829;32;32828;-85
2023/04/16 03:15:18;;;;;;;20.73;16.33;;;;;;;9.11;65.48;98839.75;4403964;32;33977;-84
2023/04/16 03:17:45;;;;;;;21.10;16.30;;;;;;;9.16;65.34;98840.66;4411313;32;32080;-85
2023/04/16 03:20:16;;;;;;;22.80;16.87;;;;;;;9.25;65.03;98835.63;4391137;32;33262;-86
2023/04/16 03:22:43;;;;;;;22.42;16.35;;;;;;;9.08;65.12;98837.13;4390452;32;33579;-85
2023/04/16 03:25:12;;;;;;;20.92;16.27;;;;;;;9.07;65.17;98840.56;4405006;32;33886;-84
2023/04/16 03:27:39;;;;;;;19.10;15.48;;;;;;;8.75;66.15;98843.56;4403684;32;34204;-85
2023/04/16 03:30:10;;;;;;;19.70;14.98;;;;;;;8.99;65.51;98852.53;4397224;32;33998;-84
2023/04/16 03:32:38;;;;;;;19.33;15.38;;;;;;;9.12;64.97;98853.56;4394938;32;33420;-84
2023/04/16 03:35:06;;;;;;;22.83;15.13;;;;;;;9.22;64.12;98856.28;4403686;32;33789;-85
2023/04/16 03:37:34;;;;;;;17.15;13.93;;;;;;;9.03;64.58;98872.41;4389925;32;33366;-84
2023/04/16 03:40:04;;;;;;;19.20;15.20;;;;;;;9.13;63.76;98871.69;4399719;32;33586;-86
2023/04/16 03:42:32;;;;;;;17.27;13.68;;;;;;;9.06;64.04;98874.19;4397859;32;33132;-85
2023/04/16 03:45:00;;;;;;;19.33;15.27;;;;;;;8.90;64.41;98875.66;4388340;32;34527;-85
2023/04/16 03:47:27;;;;;;;19.45;14.63;;;;;;;8.55;65.66;98875.97;4405045;32;34956;-84
2023/04/16 03:49:55;;;;;;;19.10;15.13;;;;;;;8.51;66.11;98877.62;4413941;32;34630;-86
2023/04/16 03:52:22;;;;;;;21.55;15.27;;;;;;;8.45;66.48;98885.31;4405685;32;33607;-86
2023/04/16 03:54:50;;;;;;;18.20;15.15;;;;;;;8.66;65.69;98891.66;4404520;32;34716;-84
2023/04/16 03:57:19;;;;;;;21.25;16.37;;;;;;;8.58;65.67;98893.25;4404309;32;33973;-85
2023/04/16 03:59:47;;;;;;;19.12;15.18;;;;;;;8.78;65.33;98887.53;4404780;32;34697;-85
2023/04/16 04:02:15;;;;;;;18.85;15.43;;;;;;;8.78;65.44;98878.91;4388212;32;34044;-83
2023/04/16 04:04:43;;;;;;;19.05;16.02;;;;;;;8.67;65.94;98890.81;4412119;32;33322;-84
2023/04/16 04:07:11;;;;;;;20.60;15.55;;;;;;;8.51;67.03;98902.59;4408435;32;35621;-84
2023/04/16 04:09:39;;;;;;;20.12;16.98;;;;;;;8.64;67.21;98888.19;4394987;32;33828;-84
2023/04/16 04:12:08;;;;;;;18.40;15.95;;;;;;;8.71;67.74;98892.59;4394588;32;33625;-85
2023/04/16 04:14:38;;;;;;;17.83;15.93;;;;;;;8.72;67.98;98884.00;4401419;32;34104;-84
2023/04/16 04:17:07;;;;;;;19.42;16.42;;;;;;;8.71;68.28;98882.25;4393820;32;34148;-84
2023/04/16 04:19:35;;;;;;;20.88;16.40;;;;;;;8.74;68.98;98890.91;4390753;32;33986;-85
2023/04/16 04:22:05;;;;;;;19.65;15.27;;;;;;;8.77;68.57;98903.91;4402574;32;33830;-85
2023/04/16 04:24:33;;;;;;;16.65;14.18;;;;;;;9.09;67.56;98906.13;4404146;32;33860;-85
2023/04/16 04:27:00;;;;;;;17.62;14.55;;;;;;;9.06;67.62;98910.37;4390621;32;34514;-84
2023/04/16 04:29:28;;;;;;;17.37;14.30;;;;;;;9.19;67.22;98915.72;4402242;32;33690;-83
2023/04/16 04:31:57;;;;;;;16.35;13.77;;;;;;;9.30;66.88;98909.84;4390736;32;33799;-86
2023/04/16 04:34:25;;;;;;;16.40;13.20;;;;;;;9.38;66.57;98913.41;4379699;32;33044;-86
2023/04/16 04:36:54;;;;;;;15.15;12.60;;;;;;;9.40;66.36;98917.75;4398903;32;34018;-84
2023/04/16 04:39:22;;;;;;;17.85;13.48;;;;;;;9.51;65.72;98915.31;4397712;32;33923;-85
2023/04/16 04:41:49;;;;;;;15.57;12.25;;;;;;;9.51;65.86;98920.50;4380469;32;32353;-84
2023/04/16 04:44:17;;;;;;;14.85;12.77;;;;;;;9.71;65.93;98913.81;4400063;32;34108;-84
2023/04/16 04:46:45;;;;;;;13.85;12.00;;;;;;;10.00;65.98;98915.91;4402768;32;33920;-85
2023/04/16 04:49:12;;;;;;;14.52;12.18;;;;;;;10.24;64.77;98907.50;4404954;32;33554;-85
2023/04/16 04:51:40;;;;;;;13.85;11.90;;;;;;;10.08;64.37;98909.06;4402941;32;34286;-85
2023/04/16 04:54:07;;;;;;;14.52;12.00;;;;;;;9.96;64.78;98917.59;4402934;32;34816;-83
2023/04/16 04:56:35;;;;;;;16.15;12.05;;;;;;;9.99;64.96;98914.13;4403959;32;33546;-84
2023/04/16 04:59:02;;;;;;;14.55;12.50;;;;;;;9.95;65.71;98917.56;4404229;32;34720;-84
2023/04/16 05:01:30;;;;;;;14.52;12.55;;;;;;;9.96;65.85;98921.88;4397071;32;33254;-84
2023/04/16 05:03:57;;;;;;;16.80;12.68;;;;;;;9.89;66.37;98923.53;4391018;32;33993;-85
2023/04/16 05:06:26;;;;;;;14.40;12.10;;;;;;;9.82;66.79;98929.50;4401625;32;34507;-85
2023/04/16 05:08:56;;;;;;;14.63;12.55;;;;;;;9.93;66.54;98919.28;4377068;32;33434;-84
2023/04/16 05:11:23;;;;;;;16.17;13.25;;;;;;;9.54;67.80;98925.69;4400590;32;33284;-85
2023/04/16 05:13:51;;;;;;;16.12;12.73;;;;;;;9.49;68.06;98922.16;4390581;32;33967;-84
2023/04/16 05:16:18;;;;;;;15.57;12.37;;;;;;;9.82;67.02;98924.31;4397907;32;34908;-84
2023/04/16 05:18:46;;;;;;;15.27;11.60;;;;;;;9.78;67.19;98937.22;4404243;32;33877;-85
2023/04/16 05:21:13;;;;;;;12.82;11.38;;;;;;;9.77;67.02;98931.12;4412133;32;34269;-84
2023/04/16 05:23:41;;;;;;;14.82;12.07;;;;;;;9.71;67.33;98939.72;4404522;32;33964;-83
2023/04/16 05:26:08;;;;;;;14.73;10.85;;;;;;;9.97;66.49;98937.44;4402768;32;34158;-84
2023/04/16 05:28:35;;;;;;;12.77;11.15;;;;;;;10.03;66.30;98944.41;4375388;32;33768;-84
2023/04/16 05:31:03;;;;;;;12.30;10.43;;;;;;;10.09;66.03;98941.03;4381800;32;33024;-84
2023/04/16 05:33:31;;;;;;;13.50;11.38;;;;;;;10.12;65.92;98941.06;4389736;32;34511;-84
2023/04/16 05:35:58;;;;;;;12.82;10.65;;;;;;;10.05;66.43;98945.31;4405843;32;33934;-84
2023/04/16 05:38:26;;;;;;;13.52;11.02;;;;;;;10.29;66.13;98941.25;4402660;32;34717;-83
2023/04/16 05:40:54;;;;;;;15.02;11.00;;;;;;;10.44;65.67;98937.09;4402116;32;34498;-84
2023/04/16 05:43:22;;;;;;;13.48;11.45;;;;;;;10.20;66.45;98932.50;4405466;32;33567;-83
2023/04/16 05:45:49;;;;;;;13.00;11.10;;;;;;;10.44;66.19;98942.28;4399563;32;34303;-84
2023/04/16 05:48:18;;;;;;;15.07;12.15;;;;;;;10.51;66.69;98939.75;4391711;32;33458;-84
2023/04/16 05:50:46;;;;;;;14.27;12.15;;;;;;;10.45;67.05;98937.94;4383284;32;33126;-83
2023/04/16 05:53:14;;;;;;;13.93;12.43;;;;;;;10.43;67.39;98937.94;4405271;32;34297;-83
2023/04/16 05:55:41;;;;;;;15.27;12.07;;;;;;;10.23;67.79;98937.72;4406343;32;33542;-83
2023/04/16 05:58:09;;;;;;;14.57;11.93;;;;;;;10.50;67.42;98945.81;4405300;32;34165;-83
2023/04/16 06:00:36;;;;;;;15.57;12.82;;;;;;;10.51;67.50;98942.34;4401941;32;33958;-84
2023/04/16 06:03:04;;;;;;;14.85;12.82;;;;;;;10.42;67.81;98945.72;4404105;32;34834;-84
2023/04/16 06:05:32;;;;;;;12.80;11.23;;;;;;;10.55;67.32;98949.28;4408471;32;35055;-84
2023/04/16 06:07:59;;;;;;;13.80;11.70;;;;;;;10.55;67.36;98951.88;4418928;32;33739;-83
2023/04/16 06:10:27;;;;;;;12.02;10.52;;;;;;;10.70;66.75;98955.47;4387620;32;32639;-83
2023/04/16 06:12:55;;;;;;;16.87;11.75;;;;;;;10.83;66.40;98950.38;4387460;32;33921;-84
2023/04/16 06:15:22;;;;;;;13.88;12.00;;;;;;;10.77;66.99;98958.13;4388608;32;34225;-83
2023/04/16 06:17:50;;;;;;;15.63;12.23;;;;;;;10.77;67.75;98960.72;4405901;32;33992;-83
2023/04/16 06:20:17;;;;;;;15.05;12.98;;;;;;;10.70;68.06;98960.66;4405120;32;34539;-85
2023/04/16 06:22:45;;;;;;;12.32;11.02;;;;;;;10.76;67.91;98961.56;4404654;32;33975;-85
2023/04/16 06:25:12;;;;;;;13.75;11.82;;;;;;;10.87;68.03;98959.94;4404716;32;34050;-83
2023/04/16 06:27:42;;;;;;;14.38;11.93;;;;;;;10.65;68.69;98953.72;4404952;32;34278;-83
2023/04/16 06:30:14;;;;;;;13.48;11.60;;;;;;;10.65;69.07;98959.75;4405260;32;34766;-84
2023/04/16 06:32:43;;;;;;;14.10;12.18;;;;;;;10.90;68.42;98962.56;4391114;32;33678;-83
2023/04/16 06:35:10;;;;;;;13.45;11.75;;;;;;;11.09;68.23;98961.84;4406229;32;35099;-84
2023/04/16 06:37:38;;;;;;;14.00;11.15;;;;;;;11.03;67.89;98950.56;4406304;32;34628;-85
2023/04/16 06:40:06;;;;;;;15.32;11.52;;;;;;;11.41;67.06;98959.47;4405864;32;34400;-85
2023/04/16 06:42:33;;;;;;;13.38;10.20;;;;;;;11.30;67.37;98960.28;4405885;32;33856;-85
2023/04/16 06:45:01;;;;;;;11.15;9.48;;;;;;;11.19;67.40;98955.00;4405866;32;33932;-84
2023/04/16 06:47:28;;;;;;;14.93;13.32;;;;;;;11.12;65.96;98959.28;4391621;32;35204;-86
2023/04/16 06:49:56;;;;;;;14.87;13.38;;;;;;;10.93;67.20;98960.00;4408431;32;33572;-86
2023/04/16 06:52:23;;;;;;;12.93;11.02;;;;;;;11.00;67.42;98956.59;4404502;32;33730;-83
2023/04/16 06:54:51;;;;;;;14.60;10.57;;;;;;;11.06;66.59;98956.66;4405820;32;34052;-84
2023/04/16 06:57:18;;;;;;;13.80;10.95;;;;;;;10.77;67.85;98955.53;4405823;32;33567;-82
2023/04/16 06:59:46;;;;;;;12.85;11.20;;;;;;;11.14;67.18;98954.97;4405422;32;34152;-83
2023/04/16 07:02:14;;;;;;;14.52;10.77;;;;;;;11.18;66.62;98951.53;4392969;32;34989;-84
2023/04/16 07:04:41;;;;;;;14.27;11.32;;;;;;;11.15;67.32;98955.84;4406963;32;33896;-85
2023/04/16 07:07:09;;;;;;;13.65;11.30;;;;;;;11.33;67.19;98949.91;4406026;32;33673;-84
2023/04/16 07:09:36;;;;;;;11.75;10.02;;;;;;;11.59;65.67;98952.62;4406150;32;34330;-82
2023/04/16 07:12:05;;;;;;;12.75;9.95;;;;;;;11.46;65.39;98954.31;4405298;32;33337;-84
2023/04/16 07:14:33;;;;;;;11.25;9.25;;;;;;;11.51;65.55;98946.53;4391410;32;34667;-82
2023/04/16 07:17:00;;;;;;;12.95;9.13;;;;;;;11.36;65.88;98957.69;4405755;32;35538;-84
2023/04/16 07:19:31;;;;;;;12.37;9.43;;;;;;;11.48;64.65;98950.00;4380519;32;32739;-81
2023/04/16 07:21:59;;;;;;;9.90;8.82;;;;;;;11.45;66.47;98956.03;4405979;32;33953;-83
2023/04/16 07:24:26;;;;;;;14.45;9.20;;;;;;;12.06;64.12;98950.28;4405630;32;34287;-82
2023/04/16 07:26:54;;;;;;;10.20;8.38;;;;;;;12.16;63.72;98952.06;4405602;32;34776;-83
2023/04/16 07:29:21;;;;;;;11.07;7.93;;;;;;;12.22;62.57;98961.59;4405290;32;32426;-81
2023/04/16 07:31:49;;;;;;;12.25;8.45;;;;;;;12.43;62.47;98955.59;4405712;32;33545;-83
2023/04/16 07:34:16;;;;;;;12.18;8.10;;;;;;;12.58;61.86;98950.41;4413289;32;34594;-82
2023/04/16 07:36:44;;;;;;;12.15;8.82;;;;;;;12.46;62.24;98952.97;4420708;32;34087;-83
2023/04/16 07:39:12;;;;;;;8.85;7.28;;;;;;;12.58;62.13;98954.75;4421412;32;33719;-83
2023/04/16 07:41:40;;;;;;;8.73;6.53;;;;;;;12.91;61.56;98954.72;4394326;32;33188;-84
2023/04/16 07:44:08;;;;;;;8.52;6.25;;;;;;;12.89;60.79;98955.63;4392468;32;34226;-83
2023/04/16 07:46:35;;;;;;;10.15;6.70;;;;;;;13.11;59.12;98951.28;4392160;32;33921;-82
2023/04/16 07:49:12;;;;;;;9.57;6.00;;;;;;;13.21;59.76;98955.59;4406099;32;33157;-81
2023/04/16 07:51:40;;;;;;;8.50;5.75;;;;;;;12.98;60.45;98952.16;4392312;32;35216;-82
2023/04/16 07:54:08;;;;;;;8.48;5.43;;;;;;;13.10;59.07;98954.72;4406041;32;33617;-82
2023/04/16 07:56:35;;;;;;;6.90;5.10;;;;;;;13.08;58.88;98964.28;4405405;32;34332;-82
2023/04/16 07:59:05;;;;;;;7.75;5.85;;;;;;;13.28;57.48;98956.50;4392108;32;33418;-81
2023/04/16 08:01:48;;;;;;;8.40;5.85;;;;;;;13.09;58.97;98961.69;4405792;32;34706;-83
2023/04/16 08:04:21;;;;;;;9.15;6.93;;;;;;;12.84;59.83;98962.53;4405510;32;33847;-82
2023/04/16 08:06:50;;;;;;;9.30;7.20;;;;;;;12.96;60.92;98966.91;4414220;32;34109;-84
2023/04/16 08:09:19;;;;;;;6.28;4.60;;;;;;;13.21;58.81;98962.53;4420957;32;34135;-83
2023/04/16 08:11:48;;;;;;;8.80;3.67;;;;;;;13.53;58.01;98965.13;4406863;32;34060;-83
2023/04/16 08:14:16;;;;;;;7.43;4.18;;;;;;;13.47;57.70;98963.38;4400748;32;34897;-82
2023/04/16 08:16:44;;;;;;;7.57;4.87;;;;;;;13.72;57.98;98976.38;4392219;32;33705;-83
2023/04/16 08:19:11;;;;;;;8.48;4.87;;;;;;;13.93;56.76;98965.84;4405654;32;34280;-83
2023/04/16 08:21:39;;;;;;;8.45;4.30;;;;;;;13.87;56.95;98971.09;4414627;32;33662;-84
2023/04/16 08:24:07;;;;;;;5.78;3.83;;;;;;;13.70;57.01;98965.06;4420945;32;34191;-83
2023/04/16 08:26:34;;;;;;;8.32;4.03;;;;;;;13.86;56.92;98964.13;4419318;32;34296;-84
2023/04/16 08:29:02;;;;;;;6.68;3.28;;;;;;;13.84;57.13;98968.50;4405788;32;34116;-83
2023/04/16 08:31:30;;;;;;;7.03;3.17;;;;;;;14.07;56.23;98968.41;4392151;32;33775;-83
2023/04/16 08:33:59;;;;;;;7.22;3.70;;;;;;;13.94;55.20;98971.94;4391868;32;34864;-84
2023/04/16 08:36:26;;;;;;;5.65;3.20;;;;;;;13.69;55.48;98971.16;4403571;32;33681;-83
2023/04/16 08:38:54;;;;;;;7.07;2.95;;;;;;;13.79;55.66;98976.34;4391627;32;32831;-83
2023/04/16 08:41:23;;;;;;;6.00;3.10;;;;;;;13.90;56.61;98976.28;4405310;32;34374;-83
2023/04/16 08:43:54;;;;;;;5.28;3.25;;;;;;;13.86;58.98;98977.16;4391864;32;34675;-83
2023/04/16 08:46:24;;;;;;;5.45;3.03;;;;;;;13.84;57.19;98989.34;4407657;32;34866;-83
2023/04/16 08:48:56;;;;;;;5.68;3.12;;;;;;;14.49;55.29;98982.09;4383320;32;34217;-82
2023/04/16 08:51:26;;;;;;;5.22;2.80;;;;;;;14.19;54.79;98990.94;4405598;32;33665;-83
2023/04/16 08:54:06;;;;;;;4.25;2.25;;;;;;;14.36;53.77;98986.53;4391631;32;34139;-82
2023/04/16 08:56:35;;;;;;;4.47;2.40;;;;;;;14.54;53.61;98977.75;4391403;32;33078;-84
2023/04/16 08:59:06;;;;;;;6.12;2.95;;;;;;;14.63;51.64;98974.22;4405552;32;33537;-83
2023/04/16 09:01:34;;;;;;;5.07;2.62;;;;;;;14.96;51.88;98981.78;4392016;32;33592;-82
2023/04/16 09:04:06;;;;;;;4.78;2.62;;;;;;;14.87;53.08;98992.31;4393930;32;33691;-84
2023/04/16 09:06:35;;;;;;;6.05;2.30;;;;;;;14.88;52.13;98986.19;4397246;32;33557;-83
2023/04/16 09:09:03;;;;;;;4.47;2.42;;;;;;;15.25;51.29;98991.12;4414812;32;34151;-84
2023/04/16 09:11:31;;;;;;;7.55;2.40;;;;;;;15.27;51.61;98992.00;4405377;32;33815;-83
2023/04/16 09:13:59;;;;;;;6.32;2.90;;;;;;;15.50;50.52;99003.09;4391336;32;34009;-83
2023/04/16 09:16:30;;;;;;;5.05;2.50;;;;;;;15.37;50.50;99005.81;4405029;32;34682;-84
2023/04/16 09:18:57;;;;;;;5.37;2.20;;;;;;;15.33;50.52;99010.22;4392010;32;33602;-83
2023/04/16 09:21:25;;;;;;;4.47;2.03;;;;;;;15.04;49.50;98997.41;4405057;32;34570;-82
2023/04/16 09:23:52;;;;;;;5.82;1.90;;;;;;;15.18;50.21;99002.50;4405033;32;34241;-82
2023/04/16 09:26:20;;;;;;;4.65;2.10;;;;;;;14.83;49.89;99009.72;4391339;32;33918;-83
2023/04/16 09:28:50;;;;;;;5.20;2.22;;;;;;;15.26;49.92;99008.53;4391051;32;34234;-83
2023/04/16 09:31:18;;;;;;;4.47;2.40;;;;;;;14.95;50.54;99016.59;4419690;32;33965;-83
2023/04/16 09:34:06;;;;;;;5.47;2.60;;;;;;;14.94;50.70;99017.50;4406697;32;34161;-83
2023/04/16 09:36:35;;;;;;;4.90;2.83;;;;;;;14.76;51.89;99017.63;4420235;32;33508;-83
2023/04/16 09:39:03;;;;;;;4.80;2.53;;;;;;;15.02;52.50;99014.81;4392195;32;33651;-82
2023/04/16 09:41:32;;;;;;;5.72;2.92;;;;;;;15.04;51.69;99008.72;4413119;32;34841;-83
2023/04/16 09:44:03;;;;;;;6.57;2.80;;;;;;;15.19;51.79;99012.06;4391454;32;34277;-84
2023/04/16 09:46:34;;;;;;;4.25;2.22;;;;;;;15.40;51.88;99011.88;4409348;32;34015;-83
2023/04/16 09:49:15;;;;;;;7.43;2.90;;;;;;;15.77;51.80;99016.78;4394660;32;32984;-82
2023/04/16 09:51:48;;;;;;;6.22;3.35;;;;;;;15.92;49.19;99006.16;4404410;32;34657;-82
2023/04/16 09:54:16;;;;;;;7.62;2.90;;;;;;;15.21;51.88;99023.38;4404600;32;34579;-82
2023/04/16 09:56:45;;;;;;;7.70;3.10;;;;;;;15.34;52.10;99014.53;4390590;32;33992;-82
2023/04/16 09:59:17;;;;;;;5.95;2.97;;;;;;;15.66;51.62;99021.25;4390582;32;34121;-82
2023/04/16 10:01:53;;;;;;;6.78;2.42;;;;;;;15.58;50.25;99009.09;4390826;32;33943;-82
2023/04/16 10:04:46;;;;;;;5.22;3.00;;;;;;;15.33;51.89;99013.69;4404874;32;35486;-83
2023/04/16 10:07:13;;;;;;;6.43;3.58;;;;;;;15.56;50.66;99003.00;4404217;32;34219;-82
2023/04/16 10:09:41;;;;;;;5.90;3.17;;;;;;;15.31;52.20;99004.16;4405082;32;33316;-82
2023/04/16 10:12:11;;;;;;;6.97;3.53;;;;;;;15.33;52.31;99007.59;4390430;32;34760;-82
2023/04/16 10:14:39;;;;;;;7.90;3.12;;;;;;;15.57;52.02;99010.00;4391224;32;33796;-82
2023/04/16 10:17:08;;;;;;;8.85;3.40;;;;;;;15.53;51.83;98997.84;4404149;32;33688;-82
2023/04/16 10:19:36;;;;;;;5.87;2.60;;;;;;;15.23;51.77;98998.12;4390773;32;32974;-82
2023/04/16 10:22:04;;;;;;;6.35;3.22;;;;;;;15.16;51.51;98993.84;4385689;32;32758;-81
2023/04/16 10:24:33;;;;;;;6.40;3.42;;;;;;;15.53;52.52;99000.47;4393028;32;34143;-83
2023/04/16 10:27:00;;;;;;;7.07;3.60;;;;;;;15.79;50.88;98989.72;4405543;32;33789;-83
2023/04/16 10:29:29;;;;;;;5.87;2.92;;;;;;;15.62;51.78;98998.62;4404120;32;33892;-82
2023/04/16 10:31:57;;;;;;;5.47;3.20;;;;;;;15.70;50.45;98994.22;4405947;32;33963;-81
2023/04/16 10:34:26;;;;;;;5.60;2.60;;;;;;;15.73;52.91;98994.19;4392616;32;35017;-82
2023/04/16 10:36:54;;;;;;;5.43;2.78;;;;;;;15.75;50.52;98992.41;4390151;32;33444;-83
2023/04/16 10:39:23;;;;;;;4.60;2.58;;;;;;;15.61;51.88;99000.38;4406532;32;33656;-83
2023/04/16 10:42:06;;;;;;;7.47;2.20;;;;;;;15.92;51.93;98985.25;4392027;32;34171;-83
2023/04/16 10:44:34;;;;;;;6.18;2.58;;;;;;;16.15;51.19;98992.81;4392103;32;33391;-83
2023/04/16 10:47:09;;;;;;;7.05;2.25;;;;;;;16.16;49.40;98984.06;4406178;32;33574;-83
2023/04/16 10:49:39;;;;;;;5.28;2.50;;;;;;;16.31;49.51;98977.78;4457957;27;34356;-84
2023/04/16 10:52:15;;;;;;;5.37;2.22;;;;;;;16.16;48.91;98984.06;4372202;32;33857;-82
2023/04/16 10:54:46;;;;;;;4.95;2.05;;;;;;;16.37;48.88;98976.84;4382199;32;34531;-82
2023/04/16 10:57:16;;;;;;;6.15;2.00;;;;;;;16.42;48.60;98975.03;4386764;32;34827;-82
2023/04/16 10:59:44;;;;;;;5.43;2.15;;;;;;;16.49;48.81;98974.06;4387241;32;34103;-82
2023/04/16 11:02:14;;;;;;;4.43;2.30;;;;;;;16.48;48.21;98967.97;4374436;32;32400;-82
2023/04/16 11:04:44;;;;;;;5.25;1.95;;;;;;;16.69;48.64;98976.38;4379241;32;33568;-82
2023/04/16 11:07:15;;;;;;;4.03;1.77;;;;;;;17.26;45.86;98965.88;4379716;32;34227;-81
2023/04/16 11:09:46;;;;;;;4.62;2.03;;;;;;;17.00;45.72;98959.31;4404008;32;33476;-82
2023/04/16 11:12:17;;;;;;;4.05;1.83;;;;;;;17.27;45.01;98963.25;4389946;32;33158;-83
2023/04/16 11:15:01;;;;;;;5.00;2.12;;;;;;;17.03;46.29;98969.75;4377494;32;35089;-82
2023/04/16 11:17:49;;;;;;;4.65;1.98;;;;;;;17.04;47.07;98960.12;4386095;32;34602;-82
2023/04/16 11:20:18;;;;;;;3.55;2.08;;;;;;;16.92;44.16;98971.66;4382485;32;33148;-82
2023/04/16 11:22:49;;;;;;;6.75;1.95;;;;;;;16.96;45.88;98967.25;4396450;32;34641;-81
2023/04/16 11:25:32;;;;;;;5.07;2.12;;;;;;;17.09;45.34;98962.69;4388283;32;34028;-82
2023/04/16 11:28:03;;;;;;;4.78;2.20;;;;;;;17.00;46.44;98961.94;4378504;32;34685;-82
2023/04/16 11:30:36;;;;;;;5.60;2.37;;;;;;;17.05;45.94;98963.59;4386649;32;33266;-82
2023/04/16 11:33:05;;;;;;;4.35;1.80;;;;;;;17.25;46.10;98966.78;4391929;32;33790;-81
2023/04/16 11:35:34;;;;;;;6.30;1.80;;;;;;;17.56;45.66;98971.47;4392158;32;34999;-82